createdAt,value
2022-10-01T00:01:11.862Z,94683.28
2022-10-01T00:03:39.594Z,94681.16
2022-10-01T00:06:09.138Z,94684.69
2022-10-01T00:08:38.301Z,94682.28
2022-10-01T00:11:10.385Z,94682.53
2022-10-01T00:13:38.253Z,94681.72
2022-10-01T00:16:09.345Z,94687.72
2022-10-01T00:18:38.241Z,94689.06
2022-10-01T00:21:09.652Z,94683.63
2022-10-01T00:23:37.733Z,94688.22
2022-10-01T00:26:14.862Z,94689.88
2022-10-01T00:28:42.871Z,94692.34
2022-10-01T00:31:12.740Z,94693.16
2022-10-01T00:33:40.493Z,94702.09
2022-10-01T00:36:09.789Z,94697.97
2022-10-01T00:38:38.185Z,94690.88
2022-10-01T00:41:06.491Z,94682.22
2022-10-01T00:43:35.620Z,94686.59
2022-10-01T00:46:06.861Z,94678.44
2022-10-01T00:48:41.136Z,94675.72
2022-10-01T00:51:08.888Z,94678.09
2022-10-01T00:53:37.811Z,94688.06
2022-10-01T00:56:07.066Z,94677.69
2022-10-01T00:58:34.819Z,94684.22
2022-10-01T01:01:02.470Z,94686.94
2022-10-01T01:03:30.402Z,94691.78
2022-10-01T01:05:59.419Z,94687.44
2022-10-01T01:08:27.050Z,94685.28
2022-10-01T01:10:59.503Z,94682.25
2022-10-01T01:13:34.423Z,94682.41
2022-10-01T01:16:06.661Z,94676.41
2022-10-01T01:18:35.532Z,94676.91
2022-10-01T01:21:20.888Z,94679.06
2022-10-01T01:24:12.211Z,94673.28
2022-10-01T01:26:54.528Z,94672.47
2022-10-01T01:29:26.808Z,94671.41
2022-10-01T01:31:56.554Z,94673.53
2022-10-01T01:34:26.885Z,94681.38
2022-10-01T01:36:59.291Z,94668.88
2022-10-01T01:39:29.450Z,94678.56
2022-10-01T01:42:01.193Z,94675.59
2022-10-01T01:44:33.955Z,94669.09
2022-10-01T01:47:03.249Z,94675.38
2022-10-01T01:49:30.935Z,94678.31
2022-10-01T01:52:02.717Z,94673.13
2022-10-01T01:54:30.465Z,94673.88
2022-10-01T01:56:59.209Z,94668.72
2022-10-01T01:59:27.294Z,94666.75
2022-10-01T02:01:56.374Z,94668.88
2022-10-01T02:04:26.603Z,94666.06
2022-10-01T02:07:07.751Z,94664.94
2022-10-01T02:09:39.585Z,94658.09
2022-10-01T02:12:13.840Z,94660.97
2022-10-01T02:14:49.127Z,94662.56
2022-10-01T02:17:23.666Z,94660.41
2022-10-01T02:19:56.993Z,94654.88
2022-10-01T02:22:27.892Z,94654.81
2022-10-01T02:24:57.411Z,94655.88
2022-10-01T02:27:28.946Z,94657.69
2022-10-01T02:29:58.391Z,94659.03
2022-10-01T02:32:28.819Z,94661.16
2022-10-01T02:34:56.600Z,94659.53
2022-10-01T02:37:25.916Z,94653.75
2022-10-01T02:39:54.340Z,94645.25
2022-10-01T02:42:23.375Z,94641.41
2022-10-01T02:44:52.413Z,94637.25
2022-10-01T02:47:22.723Z,94629.53
2022-10-01T02:49:52.519Z,94631.66
2022-10-01T02:52:23.708Z,94630.75
2022-10-01T02:54:53.986Z,94626.88
2022-10-01T02:57:23.987Z,94628.94
2022-10-01T02:59:52.119Z,94621.28
2022-10-01T03:02:20.515Z,94624.47
2022-10-01T03:04:48.997Z,94630.16
2022-10-01T03:07:18.571Z,94629.31
2022-10-01T03:09:46.241Z,94624.88
2022-10-01T03:12:13.903Z,94621.00
2022-10-01T03:14:41.999Z,94627.31
2022-10-01T03:17:09.638Z,94632.41
2022-10-01T03:19:37.306Z,94623.44
2022-10-01T03:22:05.253Z,94630.75
2022-10-01T03:24:34.324Z,94624.97
2022-10-01T03:27:02.130Z,94630.06
2022-10-01T03:29:29.750Z,94616.75
2022-10-01T03:31:57.439Z,94622.66
2022-10-01T03:34:25.083Z,94615.59
2022-10-01T03:36:52.971Z,94618.06
2022-10-01T03:39:20.728Z,94608.50
2022-10-01T03:41:49.808Z,94608.50
2022-10-01T03:44:17.516Z,94608.50
2022-10-01T03:46:45.165Z,94597.53
2022-10-01T03:49:12.845Z,94601.31
2022-10-01T03:51:40.485Z,94606.63
2022-10-01T03:54:09.028Z,94604.66
2022-10-01T03:56:36.903Z,94604.81
2022-10-01T03:59:06.026Z,94595.00
2022-10-01T04:01:34.070Z,94602.00
2022-10-01T04:04:02.428Z,94607.41
2022-10-01T04:06:30.025Z,94607.41
2022-10-01T04:08:57.651Z,94614.47
2022-10-01T04:11:25.736Z,94613.66
2022-10-01T04:13:53.341Z,94614.38
2022-10-01T04:16:22.412Z,94616.75
2022-10-01T04:18:50.044Z,94613.22
2022-10-01T04:21:18.593Z,94612.38
2022-10-01T04:23:46.271Z,94617.56
2022-10-01T04:26:13.988Z,94621.94
2022-10-01T04:28:41.675Z,94621.13
2022-10-01T04:31:27.504Z,94622.16
2022-10-01T04:33:58.179Z,94617.31
2022-10-01T04:36:26.305Z,94618.13
2022-10-01T04:38:57.867Z,94623.31
2022-10-01T04:41:27.304Z,94623.56
2022-10-01T04:43:54.920Z,94630.88
2022-10-01T04:46:22.646Z,94633.81
2022-10-01T04:48:50.353Z,94627.34
2022-10-01T04:51:19.390Z,94620.84
2022-10-01T04:53:47.040Z,94628.97
2022-10-01T04:56:14.713Z,94629.50
2022-10-01T04:58:42.308Z,94624.06
2022-10-01T05:01:09.954Z,94625.22
2022-10-01T05:03:37.612Z,94615.44
2022-10-01T05:06:05.308Z,94620.03
2022-10-01T05:08:34.310Z,94620.84
2022-10-01T05:11:03.162Z,94620.84
2022-10-01T05:13:31.816Z,94610.00
2022-10-01T05:15:59.659Z,94606.22
2022-10-01T05:18:27.336Z,94608.72
2022-10-01T05:20:54.957Z,94621.47
2022-10-01T05:23:22.646Z,94625.47
2022-10-01T05:25:51.678Z,94628.75
2022-10-01T05:28:22.401Z,94630.97
2022-10-01T05:30:50.921Z,94634.28
2022-10-01T05:33:18.604Z,94629.78
2022-10-01T05:35:46.209Z,94633.41
2022-10-01T05:38:13.861Z,94629.41
2022-10-01T05:40:41.489Z,94631.88
2022-10-01T05:43:10.454Z,94641.41
2022-10-01T05:45:38.156Z,94646.16
2022-10-01T05:48:07.144Z,94643.78
2022-10-01T05:50:39.187Z,94641.88
2022-10-01T05:53:07.663Z,94637.06
2022-10-01T05:55:35.817Z,94644.59
2022-10-01T05:58:04.768Z,94646.75
2022-10-01T06:00:34.384Z,94641.88
2022-10-01T06:03:03.604Z,94637.63
2022-10-01T06:05:32.858Z,94645.06
2022-10-01T06:08:00.778Z,94652.13
2022-10-01T06:10:30.229Z,94638.66
2022-10-01T06:13:00.296Z,94657.16
2022-10-01T06:15:27.890Z,94658.00
2022-10-01T06:17:57.070Z,94642.63
2022-10-01T06:20:24.739Z,94645.09
2022-10-01T06:22:56.582Z,94646.41
2022-10-01T06:25:24.331Z,94642.72
2022-10-01T06:27:57.891Z,94648.25
2022-10-01T06:30:27.052Z,94644.00
2022-10-01T06:33:01.156Z,94646.78
2022-10-01T06:35:28.826Z,94643.31
2022-10-01T06:37:56.423Z,94649.94
2022-10-01T06:40:24.132Z,94643.16
2022-10-01T06:42:56.590Z,94645.97
2022-10-01T06:45:24.468Z,94639.81
2022-10-01T06:47:56.627Z,94645.56
2022-10-01T06:50:24.293Z,94643.78
2022-10-01T06:52:51.152Z,94643.63
2022-10-01T06:55:18.998Z,94645.00
2022-10-01T06:57:46.885Z,94643.69
2022-10-01T07:00:15.358Z,94651.38
2022-10-01T07:02:43.056Z,94642.22
2022-10-01T07:05:12.513Z,94634.66
2022-10-01T07:07:40.173Z,94633.63
2022-10-01T07:10:09.933Z,94627.72
2022-10-01T07:12:37.974Z,94628.34
2022-10-01T07:15:06.664Z,94620.78
2022-10-01T07:17:34.460Z,94624.66
2022-10-01T07:20:02.687Z,94616.56
2022-10-01T07:22:31.670Z,94612.84
2022-10-01T07:24:59.307Z,94617.22
2022-10-01T07:27:27.050Z,94617.78
2022-10-01T07:29:58.948Z,94616.72
2022-10-01T07:32:27.066Z,94619.25
2022-10-01T07:34:54.713Z,94609.53
2022-10-01T07:37:22.988Z,94615.28
2022-10-01T07:39:51.990Z,94608.25
2022-10-01T07:42:19.639Z,94605.88
2022-10-01T07:44:47.306Z,94604.28
2022-10-01T07:47:17.039Z,94602.97
2022-10-01T07:49:44.660Z,94603.03
2022-10-01T07:52:13.507Z,94607.19
2022-10-01T07:54:41.224Z,94603.41
2022-10-01T07:57:10.200Z,94602.34
2022-10-01T07:59:38.124Z,94605.47
2022-10-01T08:02:05.784Z,94612.03
2022-10-01T08:04:51.054Z,94610.19
2022-10-01T08:07:18.687Z,94607.78
2022-10-01T08:09:46.394Z,94605.13
2022-10-01T08:12:17.748Z,94606.75
2022-10-01T08:14:45.892Z,94606.81
2022-10-01T08:17:13.480Z,94600.03
2022-10-01T08:19:41.129Z,94598.72
2022-10-01T08:22:17.629Z,94600.34
2022-10-01T08:24:45.261Z,94600.91
2022-10-01T08:27:12.961Z,94594.94
2022-10-01T08:29:43.289Z,94595.84
2022-10-01T08:32:11.043Z,94596.69
2022-10-01T08:34:38.801Z,94591.25
2022-10-01T08:37:06.486Z,94586.94
2022-10-01T08:39:34.154Z,94590.53
2022-10-01T08:42:07.175Z,94584.31
2022-10-01T08:44:41.474Z,94586.47
2022-10-01T08:47:14.425Z,94583.78
2022-10-01T08:49:43.531Z,94584.38
2022-10-01T08:52:17.127Z,94587.69
2022-10-01T08:54:47.930Z,94581.22
2022-10-01T08:57:17.309Z,94591.00
2022-10-01T08:59:49.771Z,94587.78
2022-10-01T09:02:23.707Z,94584.28
2022-10-01T09:04:55.090Z,94581.84
2022-10-01T09:07:47.933Z,94592.78
2022-10-01T09:10:25.272Z,94585.16
2022-10-01T09:13:06.422Z,94583.53
2022-10-01T09:15:41.691Z,94577.56
2022-10-01T09:18:17.100Z,94580.03
2022-10-01T09:20:47.414Z,94577.09
2022-10-01T09:23:20.478Z,94587.19
2022-10-01T09:25:51.276Z,94577.13
2022-10-01T09:28:21.544Z,94584.19
2022-10-01T09:30:54.841Z,94581.50
2022-10-01T09:33:27.802Z,94584.25
2022-10-01T09:36:02.514Z,94581.00
2022-10-01T09:38:36.415Z,94576.94
2022-10-01T09:41:04.624Z,94578.25
2022-10-01T09:43:33.754Z,94574.50
2022-10-01T09:46:01.829Z,94576.13
2022-10-01T09:48:34.215Z,94569.03
2022-10-01T09:51:05.490Z,94568.78
2022-10-01T09:53:36.564Z,94575.84
2022-10-01T09:56:09.426Z,94583.47
2022-10-01T09:58:39.982Z,94581.56
2022-10-01T10:01:17.103Z,94570.94
2022-10-01T10:03:54.625Z,94569.28
2022-10-01T10:06:23.983Z,94570.38
2022-10-01T10:08:52.623Z,94573.91
2022-10-01T10:11:23.470Z,94578.22
2022-10-01T10:13:52.644Z,94573.25
2022-10-01T10:16:24.865Z,94575.16
2022-10-01T10:18:56.186Z,94572.16
2022-10-01T10:21:26.821Z,94572.41
2022-10-01T10:23:56.031Z,94575.63
2022-10-01T10:26:29.840Z,94563.63
2022-10-01T10:28:57.643Z,94571.50
2022-10-01T10:31:27.315Z,94569.25
2022-10-01T10:34:00.501Z,94577.69
2022-10-01T10:36:31.372Z,94572.19
2022-10-01T10:39:00.047Z,94577.16
2022-10-01T10:41:29.068Z,94576.41
2022-10-01T10:44:00.552Z,94569.03
2022-10-01T10:47:00.016Z,94581.59
2022-10-01T10:49:31.391Z,94593.31
2022-10-01T10:52:01.046Z,94592.78
2022-10-01T10:54:32.605Z,94578.63
2022-10-01T10:57:02.316Z,94578.13
2022-10-01T10:59:35.017Z,94573.22
2022-10-01T11:02:04.392Z,94580.34
2022-10-01T11:04:42.416Z,94587.41
2022-10-01T11:07:11.056Z,94578.16
2022-10-01T11:09:51.299Z,94580.84
2022-10-01T11:12:27.066Z,94590.09
2022-10-01T11:15:06.772Z,94585.41
2022-10-01T11:17:55.167Z,94595.50
2022-10-01T11:20:33.929Z,94599.84
2022-10-01T11:23:12.973Z,94595.47
2022-10-01T11:25:46.398Z,94605.81
2022-10-01T11:28:29.440Z,94605.25
2022-10-01T11:31:01.055Z,94600.31
2022-10-01T11:33:36.078Z,94609.03
2022-10-01T11:36:11.300Z,94605.16
2022-10-01T11:38:46.755Z,94607.56
2022-10-01T11:41:20.100Z,94606.72
2022-10-01T11:43:52.452Z,94610.81
2022-10-01T11:46:33.131Z,94615.44
2022-10-01T11:49:18.036Z,94624.44
2022-10-01T11:51:50.532Z,94623.06
2022-10-01T11:54:22.245Z,94631.50
2022-10-01T11:57:09.824Z,94632.75
2022-10-01T11:59:40.108Z,94623.47
2022-10-01T12:02:16.147Z,94614.75
2022-10-01T12:04:48.618Z,94619.56
2022-10-01T12:07:21.850Z,94619.00
2022-10-01T12:09:57.498Z,94618.75
2022-10-01T12:12:28.443Z,94621.22
2022-10-01T12:15:06.453Z,94620.91
2022-10-01T12:17:37.147Z,94633.72
2022-10-01T12:20:13.393Z,94631.81
2022-10-01T12:22:43.412Z,94629.84
2022-10-01T12:25:12.997Z,94620.00
2022-10-01T12:27:47.931Z,94615.91
2022-10-01T12:30:18.666Z,94620.69
2022-10-01T12:32:58.646Z,94619.34
2022-10-01T12:35:38.360Z,94624.28
2022-10-01T12:38:21.891Z,94617.78
2022-10-01T12:40:55.157Z,94610.41
2022-10-01T12:43:48.897Z,94614.47
2022-10-01T12:46:25.745Z,94613.59
2022-10-01T12:49:00.794Z,94611.94
2022-10-01T12:51:46.756Z,94607.59
2022-10-01T12:54:52.920Z,94610.81
2022-10-01T12:57:33.063Z,94622.28
2022-10-01T13:00:08.093Z,94615.25
2022-10-01T13:02:58.223Z,94603.72
2022-10-01T13:05:32.093Z,94620.09
2022-10-01T13:08:08.892Z,94627.16
2022-10-01T13:10:47.645Z,94625.31
2022-10-01T13:13:18.198Z,94623.13
2022-10-01T13:15:49.459Z,94616.00
2022-10-01T13:18:27.217Z,94619.53
2022-10-01T13:21:07.021Z,94632.91
2022-10-01T13:23:41.552Z,94612.19
2022-10-01T13:26:17.407Z,94619.03
2022-10-01T13:29:01.798Z,94609.28
2022-10-01T13:31:37.579Z,94606.28
2022-10-01T13:34:25.940Z,94602.19
2022-10-01T13:36:53.773Z,94618.84
2022-10-01T13:39:22.799Z,94613.09
2022-10-01T13:41:59.321Z,94627.25
2022-10-01T13:44:33.277Z,94631.09
2022-10-01T13:47:06.217Z,94620.50
2022-10-01T13:49:34.901Z,94635.47
2022-10-01T13:52:03.525Z,94628.38
2022-10-01T13:54:39.837Z,94619.19
2022-10-01T13:57:12.607Z,94630.09
2022-10-01T13:59:40.285Z,94639.66
2022-10-01T14:02:32.475Z,94634.22
2022-10-01T14:05:15.999Z,94640.72
2022-10-01T14:07:44.901Z,94638.56
2022-10-01T14:10:15.468Z,94637.50
2022-10-01T14:13:03.684Z,94638.06
2022-10-01T14:15:53.554Z,94627.97
2022-10-01T14:18:23.541Z,94633.44
2022-10-01T14:20:57.271Z,94626.66
2022-10-01T14:23:28.715Z,94626.97
2022-10-01T14:26:00.556Z,94619.03
2022-10-01T14:28:40.293Z,94625.59
2022-10-01T14:31:10.691Z,94628.31
2022-10-01T14:33:58.642Z,94633.56
2022-10-01T14:36:29.618Z,94636.03
2022-10-01T14:39:05.496Z,94632.72
2022-10-01T14:41:35.034Z,94634.94
2022-10-01T14:44:22.189Z,94638.75
2022-10-01T14:46:50.281Z,94632.22
2022-10-01T14:49:20.857Z,94630.03
2022-10-01T14:51:53.198Z,94635.50
2022-10-01T14:54:21.648Z,94627.91
2022-10-01T14:56:50.030Z,94632.50
2022-10-01T14:59:31.262Z,94634.97
2022-10-01T15:02:01.310Z,94632.25
2022-10-01T15:04:29.335Z,94639.09
2022-10-01T15:07:04.958Z,94635.28
2022-10-01T15:09:34.972Z,94634.47
2022-10-01T15:12:03.837Z,94624.34
2022-10-01T15:14:33.420Z,94626.25
2022-10-01T15:17:04.784Z,94639.34
2022-10-01T15:19:33.162Z,94633.34
2022-10-01T15:22:02.276Z,94644.25
2022-10-01T15:24:38.065Z,94645.88
2022-10-01T15:27:07.066Z,94648.59
2022-10-01T15:29:36.547Z,94646.97
2022-10-01T15:32:05.690Z,94640.72
2022-10-01T15:34:34.068Z,94649.75
2022-10-01T15:37:02.236Z,94647.84
2022-10-01T15:39:32.500Z,94640.47
2022-10-01T15:42:02.511Z,94652.00
2022-10-01T15:44:46.390Z,94650.91
2022-10-01T15:47:27.953Z,94640.06
2022-10-01T15:50:19.156Z,94655.38
2022-10-01T15:52:53.386Z,94645.28
2022-10-01T15:55:24.981Z,94656.19
2022-10-01T15:57:56.743Z,94656.44
2022-10-01T16:00:27.868Z,94652.66
2022-10-01T16:02:56.606Z,94663.59
2022-10-01T16:05:26.443Z,94672.34
2022-10-01T16:07:58.342Z,94668.00
2022-10-01T16:10:44.884Z,94671.28
2022-10-01T16:13:32.008Z,94675.66
2022-10-01T16:16:20.310Z,94669.91
2022-10-01T16:18:53.919Z,94676.75
2022-10-01T16:21:22.633Z,94681.16
2022-10-01T16:23:52.930Z,94666.41
2022-10-01T16:26:33.371Z,94677.88
2022-10-01T16:29:02.867Z,94687.72
2022-10-01T16:31:32.457Z,94684.47
2022-10-01T16:34:00.226Z,94680.69
2022-10-01T16:36:27.891Z,94682.81
2022-10-01T16:38:56.265Z,94695.69
2022-10-01T16:41:25.365Z,94693.75
2022-10-01T16:43:54.737Z,94701.44
2022-10-01T16:46:22.417Z,94707.72
2022-10-01T16:48:52.379Z,94711.28
2022-10-01T16:51:20.222Z,94712.59
2022-10-01T16:53:47.941Z,94712.34
2022-10-01T16:56:15.881Z,94716.72
2022-10-01T16:58:45.162Z,94720.81
2022-10-01T17:01:15.147Z,94732.56
2022-10-01T17:03:43.252Z,94723.53
2022-10-01T17:06:12.340Z,94725.16
2022-10-01T17:08:39.994Z,94730.06
2022-10-01T17:11:11.875Z,94732.81
2022-10-01T17:13:40.252Z,94735.81
2022-10-01T17:16:07.943Z,94743.44
2022-10-01T17:18:35.666Z,94739.03
2022-10-01T17:21:04.119Z,94737.97
2022-10-01T17:23:34.858Z,94736.38
2022-10-01T17:26:03.036Z,94742.63
2022-10-01T17:28:31.256Z,94742.63
2022-10-01T17:30:58.949Z,94747.28
2022-10-01T17:33:27.360Z,94746.97
2022-10-01T17:35:55.847Z,94754.06
2022-10-01T17:38:24.007Z,94764.19
2022-10-01T17:40:56.676Z,94758.47
2022-10-01T17:43:24.858Z,94760.44
2022-10-01T17:45:56.725Z,94776.53
2022-10-01T17:48:25.090Z,94781.44
2022-10-01T17:50:59.949Z,94778.47
2022-10-01T17:53:34.059Z,94782.25
2022-10-01T17:56:08.097Z,94789.66
2022-10-01T17:58:35.922Z,94786.38
2022-10-01T18:01:03.976Z,94782.81
2022-10-01T18:03:31.658Z,94794.81
2022-10-01T18:06:03.486Z,94786.06
2022-10-01T18:08:51.253Z,94785.25
2022-10-01T18:11:20.438Z,94795.13
2022-10-01T18:13:48.626Z,94805.72
2022-10-01T18:16:19.193Z,94802.47
2022-10-01T18:21:35.018Z,94810.72
2022-10-01T18:24:04.846Z,94822.44
2022-10-01T18:26:34.491Z,94821.88
2022-10-01T18:29:02.429Z,94828.16
2022-10-01T18:31:34.665Z,94823.50
2022-10-01T18:34:02.829Z,94838.00
2022-10-01T18:36:47.474Z,94832.53
2022-10-01T18:39:19.029Z,94832.53
2022-10-01T18:41:48.522Z,94833.59
2022-10-01T18:44:20.237Z,94837.41
2022-10-01T18:46:57.147Z,94836.34
2022-10-01T18:49:48.970Z,94843.44
2022-10-01T18:52:21.788Z,94848.31
2022-10-01T18:55:08.838Z,94851.03
2022-10-01T18:57:50.848Z,94855.13
2022-10-01T19:00:20.874Z,94857.00
2022-10-01T19:03:19.431Z,94859.16
2022-10-01T19:06:03.544Z,94866.53
2022-10-01T19:08:49.360Z,94864.88
2022-10-01T19:11:20.900Z,94866.03
2022-10-01T19:13:59.905Z,94867.41
2022-10-01T19:16:38.149Z,94874.78
2022-10-01T19:19:16.939Z,94872.31
2022-10-01T19:21:49.346Z,94875.28
2022-10-01T19:24:25.462Z,94879.91
2022-10-01T19:26:57.660Z,94880.72
2022-10-01T19:29:30.970Z,94865.72
2022-10-01T19:32:01.055Z,94879.91
2022-10-01T19:34:31.607Z,94878.31
2022-10-01T19:37:02.593Z,94892.78
2022-10-01T19:39:34.406Z,94884.38
2022-10-01T19:42:05.648Z,94907.00
2022-10-01T19:44:40.875Z,94904.00
2022-10-01T19:47:16.736Z,94909.97
2022-10-01T19:49:45.820Z,94921.69
2022-10-01T19:52:16.609Z,94922.00
2022-10-01T19:54:46.629Z,94941.16
2022-10-01T19:57:21.784Z,94937.38
2022-10-01T19:59:50.940Z,94944.22
2022-10-01T20:02:32.277Z,94937.16
2022-10-01T20:05:03.551Z,94950.56
2022-10-01T20:07:38.942Z,94947.34
2022-10-01T20:10:12.378Z,94945.44
2022-10-01T20:12:44.690Z,94950.91
2022-10-01T20:15:21.770Z,94962.63
2022-10-01T20:18:03.729Z,94961.56
2022-10-01T20:20:35.233Z,94964.03
2022-10-01T20:23:16.136Z,94968.69
2022-10-01T20:25:47.842Z,94976.88
2022-10-01T20:28:21.365Z,94974.94
2022-10-01T20:30:58.278Z,94984.53
2022-10-01T20:33:31.074Z,95002.28
2022-10-01T20:36:04.372Z,94999.31
2022-10-01T20:38:36.382Z,94993.03
2022-10-01T20:41:06.682Z,95005.91
2022-10-01T20:43:37.226Z,95002.09
2022-10-01T20:46:10.490Z,95007.56
2022-10-01T20:48:40.548Z,95011.34
2022-10-01T20:51:13.724Z,95009.22
2022-10-01T20:53:46.778Z,95020.44
2022-10-01T20:56:17.776Z,95006.81
2022-10-01T20:58:49.152Z,95013.31
2022-10-01T21:01:21.446Z,95025.09
2022-10-01T21:03:53.122Z,95027.22
2022-10-01T21:06:25.709Z,95026.66
2022-10-01T21:08:57.115Z,95034.03
2022-10-01T21:11:30.532Z,95042.47
2022-10-01T21:14:05.162Z,95042.47
2022-10-01T21:16:53.902Z,95052.28
2022-10-01T21:19:33.959Z,95056.63
2022-10-01T21:22:12.581Z,95072.94
2022-10-01T21:24:49.654Z,95067.47
2022-10-01T21:27:34.201Z,95070.19
2022-10-01T21:30:07.868Z,95056.56
2022-10-01T21:32:53.030Z,95071.25
2022-10-01T21:35:26.935Z,95079.34
2022-10-01T21:38:00.961Z,95078.22
2022-10-01T21:40:36.124Z,95080.38
2022-10-01T21:43:11.311Z,95090.69
2022-10-01T21:45:43.506Z,95092.03
2022-10-01T21:48:16.258Z,95088.75
2022-10-01T21:50:48.052Z,95092.72
2022-10-01T21:53:37.993Z,95092.22
2022-10-01T21:56:18.633Z,95103.94
2022-10-01T21:59:03.082Z,95117.84
2022-10-01T22:01:40.568Z,95112.38
2022-10-01T22:04:17.241Z,95118.16
2022-10-01T22:06:50.840Z,95130.50
2022-10-01T22:09:25.713Z,95117.66
2022-10-01T22:11:55.587Z,95121.22
2022-10-01T22:14:25.355Z,95120.63
2022-10-01T22:16:54.443Z,95124.22
2022-10-01T22:19:29.318Z,95123.94
2022-10-01T22:22:00.600Z,95126.66
2022-10-01T22:24:31.256Z,95126.66
2022-10-01T22:27:05.269Z,95123.94
2022-10-01T22:29:37.364Z,95136.75
2022-10-01T22:32:05.999Z,95136.19
2022-10-01T22:34:38.792Z,95146.84
2022-10-01T22:37:09.367Z,95152.31
2022-10-01T22:39:40.885Z,95154.78
2022-10-01T22:42:14.184Z,95155.59
2022-10-01T22:44:41.890Z,95169.00
2022-10-01T22:47:20.835Z,95160.25
2022-10-01T22:50:01.491Z,95165.69
2022-10-01T22:52:33.985Z,95160.00
2022-10-01T22:55:11.281Z,95166.50
2022-10-01T22:57:49.147Z,95165.69
2022-10-01T23:00:17.274Z,95170.06
2022-10-01T23:02:49.985Z,95172.78
2022-10-01T23:05:35.436Z,95176.38
2022-10-01T23:08:08.093Z,95177.44
2022-10-01T23:10:42.167Z,95174.47
2022-10-01T23:13:19.492Z,95188.91
2022-10-01T23:15:53.258Z,95191.63
2022-10-01T23:18:30.492Z,95197.09
2022-10-01T23:21:09.781Z,95194.63
2022-10-01T23:23:37.670Z,95191.63
2022-10-01T23:26:27.911Z,95190.00
2022-10-01T23:29:06.163Z,95199.34
2022-10-01T23:31:37.957Z,95197.69
2022-10-01T23:34:27.112Z,95201.25
2022-10-01T23:37:05.548Z,95206.13
2022-10-01T23:39:42.437Z,95194.38
2022-10-01T23:42:16.644Z,95198.28
2022-10-01T23:44:50.016Z,95208.09
2022-10-01T23:47:22.641Z,95211.66
2022-10-01T23:49:53.217Z,95204.53
2022-10-01T23:52:27.421Z,95209.50
2022-10-01T23:55:17.960Z,95208.69
2022-10-01T23:57:45.311Z,95208.69
